createdAt,value
2019-04-26T00:01:49.321Z,2.20
2019-04-26T00:04:19.661Z,2.65
2019-04-26T00:06:49.563Z,2.20
2019-04-26T00:15:08.540Z,2.52
2019-04-26T00:20:39.355Z,2.22
2019-04-26T00:23:10.631Z,2.35
2019-04-26T00:25:40.770Z,2.80
2019-04-26T00:28:11.730Z,2.50
2019-04-26T00:30:42.161Z,3.50
2019-04-26T00:33:13.452Z,2.25
2019-04-26T00:35:47.822Z,2.37
2019-04-26T00:38:16.034Z,3.33
2019-04-26T00:40:45.993Z,3.12
2019-04-26T00:43:16.387Z,2.60
2019-04-26T00:45:49.890Z,3.65
2019-04-26T00:48:21.027Z,3.00
2019-04-26T00:50:50.961Z,3.70
2019-04-26T00:53:21.817Z,3.98
2019-04-26T00:55:52.856Z,3.92
2019-04-26T00:58:23.082Z,3.00
2019-04-26T01:00:53.814Z,3.00
2019-04-26T01:03:23.701Z,2.75
2019-04-26T01:06:00.098Z,2.72
2019-04-26T01:08:26.890Z,2.80
2019-04-26T01:10:56.850Z,2.92
2019-04-26T01:13:26.682Z,3.12
2019-04-26T01:15:56.574Z,3.05
2019-04-26T01:18:26.535Z,3.17
2019-04-26T01:20:57.997Z,2.67
2019-04-26T01:23:28.183Z,3.40
2019-04-26T01:26:07.279Z,3.02
2019-04-26T01:28:46.419Z,2.40
2019-04-26T01:31:16.315Z,3.17
2019-04-26T01:33:46.198Z,2.60
2019-04-26T01:36:16.009Z,4.00
2019-04-26T01:38:47.836Z,3.33
2019-04-26T01:44:13.498Z,2.37
2019-04-26T01:46:44.963Z,2.60
2019-04-26T01:49:14.893Z,3.12
2019-04-26T01:52:00.802Z,3.12
2019-04-26T01:54:36.386Z,3.25
2019-04-26T01:57:06.199Z,3.35
2019-04-26T01:59:36.967Z,2.70
2019-04-26T02:02:11.174Z,2.55
2019-04-26T02:04:42.651Z,3.22
2019-04-26T02:07:14.166Z,2.85
2019-04-26T02:09:44.077Z,3.17
2019-04-26T02:12:13.971Z,3.20
2019-04-26T02:14:43.824Z,2.98
2019-04-26T02:17:13.634Z,2.95
2019-04-26T02:19:43.608Z,3.00
2019-04-26T02:22:15.486Z,2.60
2019-04-26T02:24:47.046Z,2.75
2019-04-26T02:27:24.832Z,2.42
2019-04-26T02:29:55.165Z,3.12
2019-04-26T02:32:26.844Z,2.50
2019-04-26T02:34:57.088Z,2.65
2019-04-26T02:37:28.316Z,2.02
2019-04-26T02:39:58.414Z,2.47
2019-04-26T02:45:34.730Z,3.15
2019-04-26T02:48:24.612Z,2.85
2019-04-26T02:51:04.298Z,2.75
2019-04-26T02:53:40.367Z,3.40
2019-04-26T02:56:35.172Z,2.50
2019-04-26T03:01:41.604Z,3.02
2019-04-26T03:04:11.431Z,2.33
2019-04-26T03:06:42.855Z,2.62
2019-04-26T03:09:13.017Z,2.62
2019-04-26T03:11:46.645Z,3.08
2019-04-26T03:14:18.097Z,3.25
2019-04-26T03:16:52.807Z,3.35
2019-04-26T03:19:27.951Z,3.65
2019-04-26T03:22:09.678Z,3.33
2019-04-26T03:24:42.757Z,2.80
2019-04-26T03:27:34.720Z,4.00
2019-04-26T03:30:19.691Z,4.70
2019-04-26T03:35:20.179Z,5.40
2019-04-26T03:38:00.542Z,5.35
2019-04-26T03:40:53.451Z,6.28
2019-04-26T03:43:34.329Z,5.00
2019-04-26T03:46:21.807Z,4.87
2019-04-26T03:49:29.423Z,5.08
2019-04-26T03:52:18.822Z,5.10
2019-04-26T03:55:01.711Z,5.53
2019-04-26T03:57:52.668Z,4.67
2019-04-26T04:00:33.138Z,4.50
2019-04-26T04:03:26.937Z,4.90
2019-04-26T04:05:58.802Z,4.40
2019-04-26T04:11:16.799Z,4.60
2019-04-26T04:13:52.993Z,4.80
2019-04-26T04:16:32.203Z,4.55
2019-04-26T04:19:21.511Z,4.78
2019-04-26T04:22:09.713Z,4.72
2019-04-26T04:25:01.208Z,5.05
2019-04-26T04:27:41.113Z,4.75
2019-04-26T04:30:13.622Z,4.83
2019-04-26T04:33:04.907Z,5.53
2019-04-26T04:35:36.427Z,5.15
2019-04-26T04:38:36.935Z,5.47
2019-04-26T04:41:35.027Z,4.45
2019-04-26T04:44:21.463Z,5.33
2019-04-26T04:47:23.492Z,5.05
2019-04-26T04:53:11.977Z,5.42
2019-04-26T04:55:53.803Z,5.40
2019-04-26T04:58:38.725Z,4.42
2019-04-26T05:01:46.690Z,4.42
2019-04-26T05:04:23.553Z,4.28
2019-04-26T05:07:27.907Z,4.30
2019-04-26T05:10:10.042Z,5.17
2019-04-26T05:12:59.857Z,4.78
2019-04-26T05:16:09.229Z,5.45
2019-04-26T05:18:51.256Z,4.42
2019-04-26T05:21:46.688Z,4.70
2019-04-26T05:24:28.665Z,4.08
2019-04-26T05:27:26.894Z,5.20
2019-04-26T05:30:34.225Z,6.00
2019-04-26T05:33:28.314Z,6.12
2019-04-26T05:36:40.524Z,6.03
2019-04-26T05:39:16.402Z,6.70
2019-04-26T05:42:20.711Z,7.28
2019-04-26T05:45:10.371Z,7.03
2019-04-26T05:48:33.220Z,6.05
2019-04-26T05:54:05.079Z,5.95
2019-04-26T05:56:54.683Z,6.72
2019-04-26T05:59:28.898Z,7.22
2019-04-26T06:02:18.108Z,6.10
2019-04-26T06:05:12.197Z,6.65
2019-04-26T06:07:58.881Z,7.33
2019-04-26T06:10:30.361Z,6.78
2019-04-26T06:13:23.103Z,6.50
2019-04-26T06:16:09.474Z,6.55
2019-04-26T06:19:25.374Z,7.92
2019-04-26T06:22:17.919Z,6.87
2019-04-26T06:25:26.466Z,7.03
2019-04-26T06:28:04.918Z,6.97
2019-04-26T06:31:08.182Z,6.92
2019-04-26T06:37:20.512Z,7.12
2019-04-26T06:40:02.331Z,7.75
2019-04-26T06:43:00.546Z,6.42
2019-04-26T06:45:56.807Z,7.03
2019-04-26T06:48:59.073Z,7.62
2019-04-26T06:51:32.477Z,7.50
2019-04-26T06:54:13.146Z,6.67
2019-04-26T06:57:14.872Z,7.78
2019-04-26T07:00:06.910Z,5.85
2019-04-26T07:02:45.661Z,5.90
2019-04-26T07:08:56.442Z,6.95
2019-04-26T07:11:39.636Z,7.85
2019-04-26T07:14:45.881Z,5.78
2019-04-26T07:17:27.963Z,7.83
2019-04-26T07:20:26.433Z,7.12
2019-04-26T07:23:34.264Z,6.42
2019-04-26T07:26:19.336Z,5.97
2019-04-26T07:29:14.819Z,3.95
2019-04-26T07:31:53.753Z,4.75
2019-04-26T07:34:56.563Z,6.75
2019-04-26T07:38:02.636Z,6.03
2019-04-26T07:41:15.025Z,7.15
2019-04-26T07:43:53.154Z,6.08
2019-04-26T07:46:51.931Z,5.53
2019-04-26T07:49:58.583Z,6.03
2019-04-26T07:52:48.663Z,5.60
2019-04-26T07:55:44.475Z,6.37
2019-04-26T07:58:44.927Z,6.08
2019-04-26T08:01:29.002Z,7.20
2019-04-26T08:04:05.315Z,9.60
2019-04-26T08:06:41.234Z,10.10
2019-04-26T08:09:25.927Z,9.60
2019-04-26T08:11:46.754Z,11.57
2019-04-26T08:14:22.006Z,10.30
2019-04-26T08:17:06.510Z,8.08
2019-04-26T08:19:58.888Z,8.90
2019-04-26T08:22:32.642Z,9.73
2019-04-26T08:25:01.777Z,9.13
2019-04-26T08:27:31.666Z,8.83
2019-04-26T08:30:10.127Z,10.32
2019-04-26T08:32:39.123Z,7.75
2019-04-26T08:35:16.122Z,7.33
2019-04-26T08:37:55.665Z,7.80
2019-04-26T08:40:30.669Z,8.00
2019-04-26T08:43:14.873Z,8.43
2019-04-26T08:46:03.473Z,8.55
2019-04-26T08:48:37.950Z,9.20
2019-04-26T08:53:49.307Z,7.35
2019-04-26T08:56:31.017Z,8.63
2019-04-26T08:59:04.032Z,8.93
2019-04-26T09:01:42.070Z,9.08
2019-04-26T09:07:09.521Z,6.50
2019-04-26T09:09:39.491Z,7.80
2019-04-26T09:12:22.474Z,8.58
2019-04-26T09:14:46.394Z,6.10
2019-04-26T09:17:16.357Z,8.48
2019-04-26T09:19:46.412Z,7.70
2019-04-26T09:22:18.258Z,6.95
2019-04-26T09:24:49.858Z,7.28
2019-04-26T09:27:22.469Z,6.67
2019-04-26T09:29:54.059Z,6.58
2019-04-26T09:32:28.031Z,6.17
2019-04-26T09:34:56.990Z,6.25
2019-04-26T09:37:26.929Z,5.90
2019-04-26T09:40:09.403Z,7.85
2019-04-26T09:42:29.961Z,4.78
2019-04-26T09:45:10.550Z,6.20
2019-04-26T09:47:42.497Z,5.30
2019-04-26T09:50:17.163Z,5.85
2019-04-26T09:52:51.692Z,5.97
2019-04-26T09:57:53.541Z,5.42
2019-04-26T10:00:24.362Z,5.22
2019-04-26T10:02:54.249Z,6.17
2019-04-26T10:05:27.508Z,7.35
2019-04-26T10:07:57.705Z,6.85
2019-04-26T10:10:30.969Z,7.03
2019-04-26T10:13:17.654Z,6.60
2019-04-26T10:15:51.943Z,6.55
2019-04-26T10:20:53.626Z,6.17
2019-04-26T10:23:23.598Z,6.20
2019-04-26T10:25:53.816Z,7.70
2019-04-26T10:28:23.703Z,7.67
2019-04-26T10:31:06.283Z,7.20
2019-04-26T10:33:36.785Z,6.97
2019-04-26T10:36:07.682Z,6.87
2019-04-26T10:38:38.565Z,6.97
2019-04-26T10:41:08.522Z,7.00
2019-04-26T10:43:38.483Z,6.45
2019-04-26T10:46:09.731Z,8.35
2019-04-26T10:48:41.321Z,7.47
2019-04-26T10:51:12.966Z,6.85
2019-04-26T10:54:01.628Z,7.70
2019-04-26T10:59:18.262Z,8.60
2019-04-26T11:01:48.138Z,7.05
2019-04-26T11:04:17.947Z,7.95
2019-04-26T11:06:49.177Z,7.97
2019-04-26T11:09:18.998Z,8.43
2019-04-26T11:11:48.814Z,7.20
2019-04-26T11:14:22.640Z,7.03
2019-04-26T11:16:50.149Z,6.90
2019-04-26T11:19:21.061Z,7.47
2019-04-26T11:21:54.822Z,7.78
2019-04-26T11:24:23.397Z,7.22
2019-04-26T11:26:53.218Z,6.78
2019-04-26T11:29:24.935Z,5.70
2019-04-26T11:31:58.407Z,5.22
2019-04-26T11:34:26.437Z,5.92
2019-04-26T11:36:56.264Z,5.80
2019-04-26T11:39:28.316Z,5.95
2019-04-26T11:41:58.276Z,5.95
2019-04-26T11:44:28.557Z,4.97
2019-04-26T11:46:59.346Z,4.60
2019-04-26T11:49:30.432Z,4.58
2019-04-26T11:52:02.896Z,4.85
2019-04-26T11:54:31.865Z,4.77
2019-04-26T11:57:01.768Z,5.17
2019-04-26T11:59:31.942Z,5.87
2019-04-26T12:02:02.058Z,5.25
2019-04-26T12:04:49.592Z,4.37
2019-04-26T12:07:22.234Z,5.22
2019-04-26T12:12:47.133Z,4.70
2019-04-26T12:15:29.475Z,5.83
2019-04-26T12:17:58.317Z,6.37
2019-04-26T12:20:22.445Z,6.75
2019-04-26T12:22:51.653Z,5.85
2019-04-26T12:25:21.610Z,5.28
2019-04-26T12:27:53.458Z,5.35
2019-04-26T12:30:26.444Z,6.10
2019-04-26T12:32:54.414Z,5.28
2019-04-26T12:35:24.317Z,4.22
2019-04-26T12:37:54.692Z,4.67
2019-04-26T12:40:25.659Z,4.03
2019-04-26T12:42:55.567Z,4.53
2019-04-26T12:45:42.150Z,5.10
2019-04-26T12:48:16.841Z,5.35
2019-04-26T12:50:59.786Z,6.58
2019-04-26T12:53:31.197Z,6.00
2019-04-26T12:56:01.607Z,5.65
2019-04-26T12:58:31.489Z,5.70
2019-04-26T13:01:02.086Z,5.60
2019-04-26T13:03:32.046Z,5.92
2019-04-26T13:06:01.946Z,4.60
2019-04-26T13:08:31.817Z,5.28
2019-04-26T13:11:03.358Z,5.42
2019-04-26T13:13:34.881Z,4.62
2019-04-26T13:16:06.410Z,3.35
2019-04-26T13:18:36.315Z,4.55
2019-04-26T13:21:06.208Z,3.92
2019-04-26T13:23:36.021Z,5.42
2019-04-26T13:26:05.850Z,4.60
2019-04-26T13:28:35.729Z,4.05
2019-04-26T13:31:05.563Z,5.25
2019-04-26T13:33:35.383Z,4.60
2019-04-26T13:36:05.337Z,3.90
2019-04-26T13:38:39.520Z,3.77
2019-04-26T13:41:08.066Z,4.47
2019-04-26T13:43:37.966Z,3.58
2019-04-26T13:46:12.225Z,3.87
2019-04-26T13:51:45.193Z,4.45
2019-04-26T13:54:16.654Z,3.35
2019-04-26T13:56:46.668Z,4.17
2019-04-26T13:59:16.622Z,3.60
2019-04-26T14:01:48.537Z,4.87
2019-04-26T14:04:18.392Z,3.40
2019-04-26T14:06:48.218Z,4.35
2019-04-26T14:09:18.038Z,4.10
2019-04-26T14:11:47.859Z,3.52
2019-04-26T14:14:17.747Z,3.60
2019-04-26T14:16:48.033Z,3.42
2019-04-26T14:19:17.931Z,2.33
2019-04-26T14:21:47.881Z,2.27
2019-04-26T14:24:29.789Z,2.62
2019-04-26T14:29:52.701Z,1.47
2019-04-26T14:32:23.239Z,2.00
2019-04-26T14:34:55.300Z,1.65
2019-04-26T14:37:25.489Z,0.88
2019-04-26T14:39:59.087Z,1.00
2019-04-26T14:42:34.382Z,1.40
2019-04-26T14:44:58.249Z,1.10
2019-04-26T14:47:30.386Z,1.52
2019-04-26T14:50:13.045Z,1.80
2019-04-26T14:52:31.378Z,2.22
2019-04-26T14:55:01.499Z,1.22
2019-04-26T14:57:33.538Z,1.52
2019-04-26T15:00:05.012Z,1.42
2019-04-26T15:02:48.621Z,1.27
2019-04-26T15:05:20.101Z,1.55
2019-04-26T15:07:53.295Z,1.40
2019-04-26T15:10:43.485Z,1.25
2019-04-26T15:13:17.404Z,2.05
2019-04-26T15:15:38.952Z,1.67
2019-04-26T15:18:08.769Z,1.98
2019-04-26T15:20:38.648Z,1.40
2019-04-26T15:23:08.558Z,1.10
2019-04-26T15:25:41.416Z,1.10
2019-04-26T15:28:14.474Z,1.85
2019-04-26T15:30:46.648Z,1.10
2019-04-26T15:33:14.402Z,1.32
2019-04-26T15:35:46.148Z,0.53
2019-04-26T15:38:15.982Z,0.50
2019-04-26T15:40:59.620Z,0.30
2019-04-26T15:43:32.714Z,0.37
2019-04-26T15:46:14.305Z,0.40
2019-04-26T15:48:55.696Z,0.40
2019-04-26T15:51:30.141Z,0.57
2019-04-26T15:56:30.069Z,0.70
2019-04-26T15:58:59.966Z,0.60
2019-04-26T16:01:32.395Z,0.90
2019-04-26T16:04:06.228Z,0.75
2019-04-26T16:06:37.335Z,0.60
2019-04-26T16:09:08.217Z,0.82
2019-04-26T16:11:42.846Z,0.62
2019-04-26T16:14:12.399Z,0.50
2019-04-26T16:16:42.519Z,0.62
2019-04-26T16:19:13.070Z,0.40
2019-04-26T16:21:43.996Z,0.50
2019-04-26T16:24:13.980Z,0.40
2019-04-26T16:26:50.620Z,0.57
2019-04-26T16:29:19.770Z,0.45
2019-04-26T16:32:03.536Z,0.30
2019-04-26T16:34:35.071Z,0.30
2019-04-26T16:37:04.880Z,0.40
2019-04-26T16:39:38.932Z,0.40
2019-04-26T16:42:07.609Z,0.42
2019-04-26T16:44:37.561Z,0.50
2019-04-26T16:47:07.374Z,0.30
2019-04-26T16:49:41.798Z,0.70
2019-04-26T16:52:08.653Z,0.50
2019-04-26T16:54:38.453Z,0.40
2019-04-26T16:57:11.405Z,0.30
2019-04-26T16:59:46.815Z,0.55
2019-04-26T17:02:13.369Z,0.40
2019-04-26T17:04:43.648Z,0.47
2019-04-26T17:07:27.421Z,0.40
2019-04-26T17:12:29.084Z,0.60
2019-04-26T17:14:59.193Z,0.40
2019-04-26T17:17:30.077Z,0.30
2019-04-26T17:19:59.950Z,0.72
2019-04-26T17:22:55.792Z,0.78
2019-04-26T17:25:17.103Z,0.40
2019-04-26T17:27:47.793Z,0.50
2019-04-26T17:30:19.373Z,0.30
2019-04-26T17:32:51.619Z,0.55
2019-04-26T17:35:20.914Z,0.50
2019-04-26T17:37:50.801Z,0.30
2019-04-26T17:40:25.148Z,0.30
2019-04-26T17:42:52.118Z,0.40
2019-04-26T17:45:22.090Z,0.50
2019-04-26T17:47:52.993Z,0.40
2019-04-26T17:50:23.399Z,0.40
2019-04-26T17:52:53.346Z,0.40
2019-04-26T17:55:23.282Z,0.60
2019-04-26T17:58:09.697Z,0.80
2019-04-26T18:00:27.117Z,0.65
2019-04-26T18:02:57.581Z,0.75
2019-04-26T18:05:41.724Z,0.40
2019-04-26T18:08:02.826Z,0.45
2019-04-26T18:10:30.644Z,0.35
2019-04-26T18:13:00.649Z,0.55
2019-04-26T18:15:30.601Z,0.40
2019-04-26T18:18:18.181Z,0.30
2019-04-26T18:21:03.284Z,0.47
2019-04-26T18:23:34.010Z,0.50
2019-04-26T18:26:04.958Z,0.47
2019-04-26T18:28:34.838Z,0.60
2019-04-26T18:31:06.300Z,0.50
2019-04-26T18:33:36.110Z,0.68
2019-04-26T18:36:05.995Z,0.55
2019-04-26T18:38:35.874Z,0.50
2019-04-26T18:41:05.775Z,0.55
2019-04-26T18:43:35.583Z,0.50
2019-04-26T18:46:13.870Z,0.50
2019-04-26T18:48:44.076Z,0.50
2019-04-26T18:51:14.463Z,0.57
2019-04-26T18:53:45.906Z,0.65
2019-04-26T18:56:15.795Z,0.50
2019-04-26T18:58:45.690Z,0.68
2019-04-26T19:01:17.212Z,0.62
2019-04-26T19:03:49.301Z,0.53
2019-04-26T19:06:28.817Z,0.40
2019-04-26T19:08:50.867Z,0.30
2019-04-26T19:11:21.885Z,0.40
2019-04-26T19:13:56.459Z,0.85
2019-04-26T19:22:15.647Z,0.50
2019-04-26T19:24:42.325Z,0.30
2019-04-26T19:27:13.304Z,0.40
2019-04-26T19:29:43.406Z,0.47
2019-04-26T19:32:13.335Z,0.40
2019-04-26T19:34:44.213Z,0.47
2019-04-26T19:37:14.088Z,0.42
2019-04-26T19:39:43.970Z,0.50
2019-04-26T19:42:13.926Z,0.65
2019-04-26T19:44:43.810Z,0.70
2019-04-26T19:47:15.590Z,0.60
2019-04-26T19:49:49.545Z,0.50
2019-04-26T19:52:22.140Z,0.40
2019-04-26T19:54:53.928Z,0.50
2019-04-26T19:57:25.445Z,0.45
2019-04-26T19:59:55.341Z,0.60
2019-04-26T20:02:26.770Z,0.50
2019-04-26T20:04:56.657Z,0.53
2019-04-26T20:07:28.256Z,0.60
2019-04-26T20:10:02.366Z,0.40
2019-04-26T20:12:35.458Z,0.60
2019-04-26T20:15:02.296Z,0.88
2019-04-26T20:17:34.113Z,0.50
2019-04-26T20:20:16.528Z,1.55
2019-04-26T20:22:35.746Z,0.80
2019-04-26T20:25:05.890Z,0.50
2019-04-26T20:27:37.684Z,0.50
2019-04-26T20:30:09.761Z,0.60
2019-04-26T20:32:44.808Z,0.60
2019-04-26T20:35:24.422Z,0.57
2019-04-26T20:37:52.117Z,0.82
2019-04-26T20:40:25.248Z,1.05
2019-04-26T20:43:01.631Z,1.05
2019-04-26T20:45:25.196Z,4.20
2019-04-26T20:47:55.809Z,1.05
2019-04-26T20:50:28.478Z,0.50
2019-04-26T20:53:00.873Z,0.70
2019-04-26T20:55:30.401Z,0.50
2019-04-26T20:58:07.013Z,0.50
2019-04-26T21:00:36.504Z,0.98
2019-04-26T21:03:05.947Z,0.53
2019-04-26T21:05:45.679Z,0.50
2019-04-26T21:08:07.675Z,0.50
2019-04-26T21:10:37.519Z,0.70
2019-04-26T21:13:07.374Z,0.70
2019-04-26T21:15:37.249Z,0.72
2019-04-26T21:18:07.085Z,0.57
2019-04-26T21:20:36.889Z,0.50
2019-04-26T21:23:06.866Z,0.37
2019-04-26T21:25:56.859Z,0.40
2019-04-26T21:28:28.375Z,0.50
2019-04-26T21:31:03.359Z,0.50
2019-04-26T21:33:39.172Z,0.60
2019-04-26T21:36:18.692Z,0.50
2019-04-26T21:38:53.040Z,0.50
2019-04-26T21:43:53.600Z,0.57
2019-04-26T21:46:23.551Z,0.40
2019-04-26T21:48:53.569Z,0.72
2019-04-26T21:51:23.506Z,0.30
2019-04-26T21:53:53.328Z,0.30
2019-04-26T21:56:23.605Z,0.40
2019-04-26T21:58:53.545Z,0.45
2019-04-26T22:01:25.206Z,0.30
2019-04-26T22:03:58.291Z,0.30
2019-04-26T22:06:28.804Z,0.40
2019-04-26T22:09:05.045Z,0.30
2019-04-26T22:11:35.592Z,0.30
2019-04-26T22:14:07.117Z,0.37
2019-04-26T22:16:57.585Z,0.40
2019-04-26T22:19:46.317Z,0.33
2019-04-26T22:22:26.889Z,0.30
2019-04-26T22:25:04.377Z,0.30
2019-04-26T22:27:34.261Z,0.30
2019-04-26T22:30:06.953Z,0.30
2019-04-26T22:32:36.837Z,0.47
2019-04-26T22:35:06.650Z,0.65
2019-04-26T22:37:36.454Z,0.30
2019-04-26T22:40:10.579Z,0.30
2019-04-26T22:42:42.154Z,0.30
2019-04-26T22:45:33.538Z,0.30
2019-04-26T22:48:11.662Z,0.40
2019-04-26T22:50:43.626Z,0.28
2019-04-26T22:53:14.577Z,0.40
2019-04-26T22:55:44.846Z,0.30
2019-04-26T22:58:14.734Z,0.30
2019-04-26T23:00:44.613Z,0.30
2019-04-26T23:03:14.862Z,0.30
2019-04-26T23:05:44.750Z,0.30
2019-04-26T23:08:14.631Z,0.30
2019-04-26T23:10:46.793Z,0.20
2019-04-26T23:16:24.681Z,0.30
2019-04-26T23:18:56.156Z,0.60
2019-04-26T23:21:30.402Z,0.47
2019-04-26T23:24:00.208Z,0.40
2019-04-26T23:26:30.509Z,0.40
2019-04-26T23:29:01.559Z,0.40
2019-04-26T23:31:31.458Z,0.30
2019-04-26T23:34:02.970Z,0.40
2019-04-26T23:36:32.941Z,0.40
2019-04-26T23:39:03.401Z,0.40
2019-04-26T23:41:37.574Z,0.30
2019-04-26T23:44:06.781Z,0.35
2019-04-26T23:46:36.769Z,0.33
2019-04-26T23:49:06.749Z,0.40
2019-04-26T23:51:38.272Z,0.62
2019-04-26T23:54:08.450Z,0.57
2019-04-26T23:56:38.340Z,0.40
2019-04-26T23:59:08.164Z,0.40
